Customer Care: +91-6380666382 / +91-8750116554 /
+91 8825958698
 
 
 
 
 
Septemper 2018
August 2018
July 2018
  1. Stock Option (Zero Loss) Jackpot Package
  2. Nifty Option (Zero loss) Jackpot Package
Date Type of option Target  SL Duration Remark Profit in 5 lots % Profit
01-01-2018 100% HIGH GAIN: BUY BHEL 95CE @ 4 7 3 BTST EXIT @ 5.75 on 2nd JAN. 65625 44
02-01-2018 Buy L&TFH 170PE@ 4.85 5.85 3 Intraday Target price booked 22500 21
02-01-2018 Buy BATAINDIA 780CE @ 14.5 22 8 BTST Target price booked on 3rd. JAN. 41250 52
03-01-2018 LOW MOVEMENT 0 0 0 NO CALLS 0 0
04-01-2018 100% HIGH GAIN: Buy TITAN 860CE @ 36 42 33.25 Intraday Target price booked 45000 17
04-01-2018 100% HIGH GAIN: Buy TATASTEEL 750CE @ 24.5 35 20 BTST Target price booked on 5th JAN. 52500 43
05-01-2018 Buy SUNTV 1060CE @ 28.5 34 24 Intraday Exit @ 31.20 13750 9
08-01-2018 Buy LICHSGFIN 570CE @ 20.75 25 18 Intraday Target price booked 23375 20
08-01-2018 Buy HEROMOTOCO 3800CE @ 64 90 48 BTST EXIT @ 72 on 9th JAN. 8000 13
10-01-2018 Buy JETAIRWAYS 860CE@ 32 38.5 29 Intraday Target price booked 39000 20
11-01-2018 100% HIGH GAIN: Buy DISHTV 80PE @ 1.5 3 1 BTST Target price booked on 12th JAN. 52500 100
12-01-2018 Buy BHARTIARTL 510PE @ 13.45 16.5 10 Intraday Target price booked 25925 23
15-01-2018 Buy TORRENTPHARMA 1400CE @ 36 50 22 Intraday Exit @ 42 15000 17
15-01-2018 100% HIGH GAIN: Buy HINDALCO 270PE@ 7 10 5 BTST Target price booked on 16th JAN. 52500 43
16-01-2018 Buy ORIENTBANK 120PE @ 3.85 5 2 Intraday Target price booked 34500 30
17-01-2018 Buy ZEEL 590PE @ 9.15 15 8 Intraday Exit @ 11.5 15275 26
18-01-2018 100% HIGH GAIN: BUY INFRATEL 360PE @ 7.75 14 5 Intraday Target price booked 53125 81
18-01-2018 Buy KTKBANK 160PE @ 5.05 6.25 2.75 Intraday Target price booked 22800 24
19-01-2018 Buy CANBK 360CE @ 6.10 10 4 Intraday Target Price Booked 31200 64
22-01-2018 100% HIGH GAIN: BUY RELAINCE 940CE@ 17.75 30 13.5 Intraday Target price booked 61250 69
22-01-2018 Buy JUSTDIAL 580CE @ 33.25 38 30 Intraday Target price booked 33250 14
23-01-2018 Buy TATASTEEL 770CE @ 16.55 21 15 Intraday Target price booked 22250 27
23-01-2018 Buy HEXAWARE 350CE @ 12.20 15 8.75 Intraday Target price booked 42000 23
24-01-2018 Buy TATAMOTORS 410PE @ 4.5 8 2.25 Intraday Target price booked 26250 78
24-01-2018 Buy ACC 1760PE @ 29 42 25 BTST SL HITTED ON 25th JAN. -8000 -14
25-01-2018 100% HIGH GAIN: Buy SBIN 320PE FEB. @ 15.45 19 12.75 Intraday Exit @ 17.5 30750 13
25-01-2018 BUY BANKBARODA 170PE @ 9.5 13 6.5 BTST EXIT @ 12 ON 29 JAN. 50000 26
29-01-2018 Buy ZEEL 610CE @ 17.5 21 15.5 Intraday Target price booked 22750 20
29-01-2018 Buy TVSMOTOR 730CE @ 22.35 27 19 BTST Target price booked on 30 JAN. 23250 21
30-01-2018 Buy MARICO 320CE @ 5.25 9 2.5 BTST EXIT @ COST ON 31st JAN. 0 0
31-01-2018 Buy HAVELLS 530PE @ 20.25 23.25 17.75 Intraday Target price booked 30000 15
  Total         947575  
Date Type of option Target SL Duration Remark Profit in 5 lots % Profit
01-01-2018 Buy Nifty 10500PE @ 116 135 105 Intraday Target price booked 7125 16
02-01-2018 Buy Nifty 10500PE @ 136 160 128 Intraday Target price booked 9000 18
03-01-2018 Buy Nifty 10400CE @ 160 188 148 Intraday Target price booked on 4th JAN. 10500 18
05-01-2018 Buy Nifty 10500CE @ 136 150 128 Intraday Target price booked 5250 10
05-01-2018 Buy Nifty 10550PE @ 102 130 92 BTST SL HITTED on 8th JAN. -3750 -10
09-01-2018 Buy Nifty 10600CE @ 106 124 98 Intraday Target price booked 6750 17
10-01-2018 RISKY MARKET 0 0 0 NO CALLS 0 0
11-01-2018 Buy Nifty 10600CE @ 110 132 98 Intraday Target price booked 8250 20
12-01-2018 Buy Nifty 10650 PE @ 86 110 80 Intraday Target Price Booked 9000 28
15-01-2018 Buy Nifty 10700CE @ 104 128 90 BTST EXIT @ COST ON 16th JAN. 0 0
16-01-2018 Buy Nifty 10700PE @ 56 74 50 Intraday Target price booked 6750 32
17-01-2018 100% HIGH GAIN: Buy Nifty 10800CE @ 52 98 36 BTST Target Price Booked on 18th JAN 17250 88
18-01-2018 Buy NIFTY 10850PE @ 75 98 60 Intraday Target price booked 8625 31
19-01-2018 Buy NIFTY 10800CE @ 71 104 62 Intraday Target Price Booked 12375 46
22-01-2018 Buy NIFTY 10900CE @ 75 104 65 Intraday Target price booked 10875 39
23-01-2018 Buy NIFTY 11000CE @ 92 106 80 Intraday Target price booked 5250 15
24-01-2018 Buy NIFTY 11000CE@ 96 122 86 BTST SL HITTED ON 25th JAN. -3750 -10
25-01-2018 Buy NIFTY 11100CE FEB @ 172 195 152 Intraday EXIT @ 185 4875 8
29-01-2018 Buy NIFTY 11050PE @ 157 188 150 Intraday EXIT @ 164 2250 4
30-01-2018 HIGHLY RISKY MARKET 0 0 0 NO CALLS 0 0
  Total         116625  
 
 
© Copyright All Rights Reserved to Callput.in
Payment
Terms&conditions   
Disclaimer
 
Privacy Policy